Time;durP1;ratioP1;P1;durP2;ratioP2;P2;SDS_P1;SDS_P2;PMS_P1;PMS_P2;Temp;Humidity;BMP_temperature;BMP_pressure;BME280_temperature;BME280_humidity;BME280_pressure;Samples;Min_cycle;Max_cycle;Signal;HPM_P1;HPM_P2
2022/07/03 00:01:32;;;;;;;15.32;9.52;;;;;;;;;;6209453;28;20026;-83
2022/07/03 00:04:32;;;;;;;17.83;10.13;;;;;;;;;;6199152;28;20042;-82
2022/07/03 00:07:33;;;;;;;14.88;10.25;;;;;;;;;;6202484;28;20060;-82
2022/07/03 00:10:33;;;;;;;17.35;11.27;;;;;;;;;;6194690;28;20030;-82
2022/07/03 00:13:34;;;;;;;16.77;9.98;;;;;;;;;;6202450;28;20018;-82
2022/07/03 00:16:34;;;;;;;16.92;11.35;;;;;;;;;;6198376;28;20022;-82
2022/07/03 00:19:34;;;;;;;20.65;12.50;;;;;;;;;;6206628;28;20470;-82
2022/07/03 00:22:37;;;;;;;15.25;10.48;;;;;;;;;;6205076;28;20018;-82
2022/07/03 00:25:38;;;;;;;20.27;12.10;;;;;;;;;;6227496;28;20445;-83
2022/07/03 00:28:40;;;;;;;19.02;13.48;;;;;;;;;;6201652;28;20053;-82
2022/07/03 00:31:41;;;;;;;17.27;11.23;;;;;;;;;;6193858;28;20521;-82
2022/07/03 00:34:42;;;;;;;16.75;10.70;;;;;;;;;;6197196;28;20022;-82
2022/07/03 00:37:42;;;;;;;20.35;12.48;;;;;;;;;;6202745;28;20105;-82
2022/07/03 00:40:43;;;;;;;17.33;11.07;;;;;;;;;;6197700;28;20022;-83
2022/07/03 00:43:43;;;;;;;18.17;11.98;;;;;;;;;;6201431;28;20019;-83
2022/07/03 00:46:47;;;;;;;20.33;11.87;;;;;;;;;;6203521;28;20524;-83
2022/07/03 00:49:48;;;;;;;17.88;11.98;;;;;;;;;;6205459;28;21015;-82
2022/07/03 00:52:50;;;;;;;23.30;14.50;;;;;;;;;;6191228;28;20021;-82
2022/07/03 00:55:52;;;;;;;18.95;12.20;;;;;;;;;;6192240;28;20002;-82
2022/07/03 00:58:55;;;;;;;20.98;12.88;;;;;;;;;;6205732;28;20152;-82
2022/07/03 01:02:17;;;;;;;21.40;14.18;;;;;;;;;;6196498;28;20026;-82
2022/07/03 01:05:17;;;;;;;17.77;11.55;;;;;;;;;;6204773;28;20018;-83
2022/07/03 01:08:24;;;;;;;18.73;12.80;;;;;;;;;;6198183;28;20073;-82
2022/07/03 01:11:27;;;;;;;20.17;12.73;;;;;;;;;;6205114;28;20349;-83
2022/07/03 01:14:32;;;;;;;23.90;14.52;;;;;;;;;;6210354;28;20022;-82
2022/07/03 01:17:37;;;;;;;19.95;12.80;;;;;;;;;;6191821;28;20034;-82
2022/07/03 01:20:38;;;;;;;21.95;13.32;;;;;;;;;;6208502;28;20112;-83
2022/07/03 01:23:57;;;;;;;23.58;14.45;;;;;;;;;;6202779;28;20030;-83
2022/07/03 01:27:03;;;;;;;22.05;12.93;;;;;;;;;;6213920;28;20025;-82
2022/07/03 01:30:05;;;;;;;24.17;14.07;;;;;;;;;;6207347;28;20092;-83
2022/07/03 01:33:06;;;;;;;;;;;;;;;;;;6198985;28;20029;-82
2022/07/03 01:36:07;;;;;;;23.95;14.07;;;;;;;;;;6203360;28;19906;-83
2022/07/03 01:39:09;;;;;;;29.10;17.17;;;;;;;;;;6203520;28;20030;-83
2022/07/03 01:42:10;;;;;;;28.83;17.70;;;;;;;;;;6194895;28;20014;-83
2022/07/03 01:45:13;;;;;;;28.92;18.90;;;;;;;;;;6195845;28;20547;-83
2022/07/03 01:48:14;;;;;;;27.65;19.58;;;;;;;;;;6205016;28;20037;-84
2022/07/03 01:51:14;;;;;;;27.50;17.20;;;;;;;;;;6200690;28;20025;-83
2022/07/03 01:54:16;;;;;;;25.83;18.90;;;;;;;;;;6198110;28;20022;-83
2022/07/03 01:57:16;;;;;;;29.73;17.95;;;;;;;;;;6207846;28;20029;-83
2022/07/03 02:00:20;;;;;;;26.77;17.53;;;;;;;;;;6198284;28;20030;-83
2022/07/03 02:03:25;;;;;;;28.08;19.23;;;;;;;;;;6196860;28;20278;-83
2022/07/03 02:06:25;;;;;;;27.95;17.92;;;;;;;;;;6220566;28;20058;-83
2022/07/03 02:09:32;;;;;;;28.33;18.67;;;;;;;;;;6206545;28;20616;-83
2022/07/03 02:12:40;;;;;;;26.70;18.85;;;;;;;;;;6203287;28;20676;-83
2022/07/03 02:15:42;;;;;;;33.10;18.33;;;;;;;;;;6194969;28;20485;-83
2022/07/03 02:18:42;;;;;;;23.50;16.38;;;;;;;;;;6202319;28;20085;-83
2022/07/03 02:21:47;;;;;;;28.30;17.13;;;;;;;;;;6191159;28;20587;-83
2022/07/03 02:24:48;;;;;;;26.23;17.38;;;;;;;;;;6190702;28;20026;-83
2022/07/03 02:27:55;;;;;;;26.15;15.13;;;;;;;;;;6212024;28;20649;-83
2022/07/03 02:30:57;;;;;;;27.08;16.35;;;;;;;;;;6207341;28;20369;-83
2022/07/03 02:33:58;;;;;;;23.73;13.98;;;;;;;;;;6211094;28;20493;-84
2022/07/03 02:37:09;;;;;;;18.10;13.00;;;;;;;;;;6205876;28;20034;-83
2022/07/03 02:40:14;;;;;;;21.08;14.55;;;;;;;;;;6206919;28;20545;-83
2022/07/03 02:43:15;;;;;;;18.92;11.85;;;;;;;;;;6201235;28;20157;-83
2022/07/03 02:49:50;;;;;;;20.85;13.45;;;;;;;;;;6210458;28;20025;-83
2022/07/03 02:53:05;;;;;;;20.67;13.50;;;;;;;;;;6193831;28;20363;-83
2022/07/03 02:56:13;;;;;;;20.65;14.60;;;;;;;;;;6210863;28;20018;-83
2022/07/03 02:59:34;;;;;;;23.65;14.27;;;;;;;;;;6215914;28;20022;-83
2022/07/03 03:02:53;;;;;;;19.42;13.35;;;;;;;;;;6212347;28;20030;-83
2022/07/03 03:05:55;;;;;;;19.13;13.65;;;;;;;;;;6201015;28;20018;-83
2022/07/03 03:08:59;;;;;;;21.50;13.50;;;;;;;;;;6204582;28;20065;-84
2022/07/03 03:12:01;;;;;;;21.58;13.98;;;;;;;;;;6195313;28;20032;-83
2022/07/03 03:15:04;;;;;;;18.08;11.90;;;;;;;;;;6214293;28;20017;-83
2022/07/03 03:18:07;;;;;;;18.48;12.85;;;;;;;;;;6219315;28;20036;-84
2022/07/03 03:21:12;;;;;;;19.90;13.32;;;;;;;;;;6210526;28;20036;-83
2022/07/03 03:24:13;;;;;;;18.63;12.85;;;;;;;;;;6205205;28;20077;-83
2022/07/03 03:27:13;;;;;;;17.23;12.80;;;;;;;;;;6194507;28;20038;-83
2022/07/03 03:30:14;;;;;;;20.83;13.25;;;;;;;;;;6198019;28;20515;-83
2022/07/03 03:33:14;;;;;;;19.05;12.45;;;;;;;;;;6208600;28;20018;-83
2022/07/03 03:36:16;;;;;;;18.65;12.25;;;;;;;;;;6215229;28;20025;-84
2022/07/03 03:39:17;;;;;;;19.67;13.35;;;;;;;;;;6223458;28;20113;-84
2022/07/03 03:42:17;;;;;;;17.13;12.27;;;;;;;;;;6198276;28;20651;-83
2022/07/03 03:45:17;;;;;;;16.17;10.52;;;;;;;;;;6208120;28;20029;-83
2022/07/03 03:48:18;;;;;;;18.98;13.57;;;;;;;;;;6203278;28;20027;-83
2022/07/03 03:51:18;;;;;;;21.15;13.02;;;;;;;;;;6200673;28;20402;-83
2022/07/03 03:54:18;;;;;;;15.77;11.30;;;;;;;;;;6208647;28;20032;-83
2022/07/03 03:57:20;;;;;;;16.02;11.05;;;;;;;;;;6197782;28;20128;-83
2022/07/03 04:00:20;;;;;;;16.25;12.05;;;;;;;;;;6196533;28;20033;-83
2022/07/03 04:03:21;;;;;;;18.35;11.30;;;;;;;;;;6207247;28;20049;-83
2022/07/03 04:06:21;;;;;;;21.15;12.50;;;;;;;;;;6199121;28;20030;-83
2022/07/03 04:09:21;;;;;;;16.38;10.15;;;;;;;;;;6213559;28;20050;-83
2022/07/03 04:12:21;;;;;;;15.80;11.37;;;;;;;;;;6211073;28;20036;-83
2022/07/03 04:15:22;;;;;;;16.03;10.83;;;;;;;;;;6189078;28;20026;-83
2022/07/03 04:18:22;;;;;;;15.82;11.07;;;;;;;;;;6208019;28;20046;-83
2022/07/03 04:21:23;;;;;;;17.23;11.73;;;;;;;;;;6199594;28;20019;-82
2022/07/03 04:24:23;;;;;;;16.33;11.20;;;;;;;;;;6198189;28;20033;-82
2022/07/03 04:27:23;;;;;;;17.75;10.90;;;;;;;;;;6193253;28;20026;-84
2022/07/03 04:30:24;;;;;;;16.27;11.63;;;;;;;;;;6188896;28;20027;-82
2022/07/03 04:33:24;;;;;;;17.73;12.52;;;;;;;;;;6195750;28;20022;-83
2022/07/03 04:36:24;;;;;;;14.17;10.57;;;;;;;;;;6203276;28;20037;-83
2022/07/03 04:39:24;;;;;;;17.27;10.50;;;;;;;;;;6201180;28;20024;-82
2022/07/03 04:42:24;;;;;;;14.30;10.27;;;;;;;;;;6201449;28;20700;-82
2022/07/03 04:45:25;;;;;;;14.00;9.03;;;;;;;;;;6199848;28;20525;-82
2022/07/03 04:48:27;;;;;;;13.53;9.90;;;;;;;;;;6205241;28;20018;-82
2022/07/03 04:51:27;;;;;;;14.02;10.50;;;;;;;;;;6214316;28;20030;-82
2022/07/03 04:54:27;;;;;;;13.27;10.23;;;;;;;;;;6192850;28;20493;-82
2022/07/03 04:57:28;;;;;;;15.07;10.03;;;;;;;;;;6206209;28;20019;-81
2022/07/03 05:00:28;;;;;;;12.53;9.60;;;;;;;;;;6208077;28;20449;-81
2022/07/03 05:03:29;;;;;;;12.37;10.00;;;;;;;;;;6203067;28;20054;-81
2022/07/03 05:06:29;;;;;;;13.37;9.27;;;;;;;;;;6200315;28;20081;-82
2022/07/03 05:09:29;;;;;;;12.97;9.37;;;;;;;;;;6201942;28;20121;-81
2022/07/03 05:12:29;;;;;;;12.63;9.27;;;;;;;;;;6199204;28;20046;-81
2022/07/03 05:15:29;;;;;;;12.50;8.83;;;;;;;;;;6191114;28;20710;-81
2022/07/03 05:18:30;;;;;;;14.10;8.97;;;;;;;;;;6183792;28;20556;-81
2022/07/03 05:21:30;;;;;;;15.70;9.93;;;;;;;;;;6212569;28;20022;-81
2022/07/03 05:24:30;;;;;;;13.73;8.57;;;;;;;;;;6192298;28;20056;-81
2022/07/03 05:27:31;;;;;;;15.77;11.10;;;;;;;;;;6195604;28;20049;-81
2022/07/03 05:30:31;;;;;;;15.33;9.37;;;;;;;;;;6223087;28;20057;-81
2022/07/03 05:33:32;;;;;;;15.10;8.50;;;;;;;;;;6211270;28;20029;-81
2022/07/03 05:36:32;;;;;;;13.00;9.07;;;;;;;;;;6239344;28;20549;-81
2022/07/03 05:39:32;;;;;;;13.57;8.87;;;;;;;;;;6207792;28;20022;-81
2022/07/03 05:42:33;;;;;;;10.27;8.37;;;;;;;;;;6199873;28;20099;-81
2022/07/03 05:45:33;;;;;;;14.73;10.10;;;;;;;;;;6202727;28;20165;-82
2022/07/03 05:48:33;;;;;;;16.97;10.00;;;;;;;;;;6203612;28;20025;-81
2022/07/03 05:51:33;;;;;;;14.27;8.40;;;;;;;;;;6190633;28;20026;-81
2022/07/03 05:54:34;;;;;;;10.93;8.23;;;;;;;;;;6201816;28;20488;-82
2022/07/03 05:57:34;;;;;;;10.23;8.00;;;;;;;;;;6194764;28;20062;-82
2022/07/03 06:00:34;;;;;;;11.33;8.83;;;;;;;;;;6187044;28;20037;-81
2022/07/03 06:03:35;;;;;;;10.10;8.07;;;;;;;;;;6186230;28;20022;-79
2022/07/03 06:06:35;;;;;;;9.67;7.53;;;;;;;;;;6201651;28;20030;-81
2022/07/03 06:09:35;;;;;;;11.07;8.07;;;;;;;;;;6219109;28;20042;-82
2022/07/03 06:12:35;;;;;;;10.40;7.43;;;;;;;;;;6202595;28;20524;-81
2022/07/03 06:15:35;;;;;;;10.10;7.40;;;;;;;;;;6212298;28;20528;-81
2022/07/03 06:18:36;;;;;;;11.40;7.37;;;;;;;;;;6208668;28;20963;-81
2022/07/03 06:21:36;;;;;;;10.53;7.97;;;;;;;;;;6202163;28;20478;-82
2022/07/03 06:24:36;;;;;;;11.37;6.90;;;;;;;;;;6209089;28;20415;-81
2022/07/03 06:27:36;;;;;;;10.23;7.80;;;;;;;;;;6204612;28;20324;-82
2022/07/03 06:30:37;;;;;;;9.90;7.03;;;;;;;;;;6208518;28;20033;-82
2022/07/03 06:33:37;;;;;;;11.20;6.67;;;;;;;;;;6202820;28;20022;-82
2022/07/03 06:36:37;;;;;;;9.67;6.33;;;;;;;;;;6220155;28;20033;-80
2022/07/03 06:39:37;;;;;;;9.90;6.60;;;;;;;;;;6203226;28;20033;-79
2022/07/03 06:42:37;;;;;;;8.07;6.40;;;;;;;;;;6209879;28;20022;-79
2022/07/03 06:45:38;;;;;;;8.33;6.63;;;;;;;;;;6205679;28;20037;-79
2022/07/03 06:48:38;;;;;;;7.53;5.70;;;;;;;;;;6188868;28;20679;-79
2022/07/03 06:51:38;;;;;;;8.63;6.20;;;;;;;;;;6194121;28;20014;-80
2022/07/03 06:54:41;;;;;;;7.97;5.97;;;;;;;;;;6189301;28;20022;-79
2022/07/03 06:57:41;;;;;;;14.07;6.50;;;;;;;;;;6192578;28;20021;-80
2022/07/03 07:00:42;;;;;;;8.87;5.77;;;;;;;;;;6199754;28;20056;-80
2022/07/03 07:03:43;;;;;;;10.50;6.43;;;;;;;;;;6201948;28;20134;-80
2022/07/03 07:06:43;;;;;;;8.17;6.43;;;;;;;;;;6205961;28;20397;-80
2022/07/03 07:09:43;;;;;;;9.23;5.60;;;;;;;;;;6195584;28;20035;-80
2022/07/03 07:12:43;;;;;;;9.47;5.50;;;;;;;;;;6197018;28;20033;-80
2022/07/03 07:15:44;;;;;;;8.50;4.47;;;;;;;;;;6194763;28;20018;-80
2022/07/03 07:18:44;;;;;;;4.70;3.90;;;;;;;;;;6206363;28;20022;-80
2022/07/03 07:21:45;;;;;;;5.27;3.90;;;;;;;;;;6191752;28;20418;-80
2022/07/03 07:24:46;;;;;;;7.15;4.07;;;;;;;;;;6197890;28;20679;-80
2022/07/03 07:27:47;;;;;;;6.70;3.73;;;;;;;;;;6205883;28;20058;-80
2022/07/03 07:30:47;;;;;;;6.25;3.75;;;;;;;;;;6191578;28;20033;-80
2022/07/03 07:33:48;;;;;;;6.27;3.60;;;;;;;;;;6190081;28;20018;-80
2022/07/03 07:36:48;;;;;;;4.27;2.63;;;;;;;;;;6191498;28;20027;-80
2022/07/03 07:39:48;;;;;;;;;;;;;;;;;;6188629;28;20021;-80
2022/07/03 07:42:48;;;;;;;5.63;3.97;;;;;;;;;;6190068;28;19968;-80
2022/07/03 07:45:49;;;;;;;;;;;;;;;;;;6202187;28;20028;-80
2022/07/03 07:48:49;;;;;;;4.00;2.93;;;;;;;;;;6200485;28;19948;-81
2022/07/03 07:51:49;;;;;;;;;;;;;;;;;;6197435;28;20251;-81
2022/07/03 07:54:49;;;;;;;6.28;3.20;;;;;;;;;;6199468;28;20052;-81
2022/07/03 07:57:50;;;;;;;;;;;;;;;;;;6207125;28;20022;-81
2022/07/03 08:07:33;;;;;;;4.68;3.15;;;;;;;;;;6199792;28;20034;-81
2022/07/03 08:10:33;;;;;;;;;;;;;;;;;;6218204;28;20037;-80
2022/07/03 08:13:34;;;;;;;6.22;2.72;;;;;;;;;;6205422;28;19913;-81
2022/07/03 08:16:34;;;;;;;;;;;;;;;;;;6196396;28;20025;-81
2022/07/03 08:19:34;;;;;;;6.40;3.15;;;;;;;;;;6184934;28;19922;-80
2022/07/03 08:22:34;;;;;;;;;;;;;;;;;;6197255;28;20021;-81
2022/07/03 08:25:35;;;;;;;4.68;2.90;;;;;;;;;;6212076;28;19905;-80
2022/07/03 08:28:35;;;;;;;5.70;2.90;;;;;;;;;;6199011;28;20022;-81
2022/07/03 08:31:35;;;;;;;2.53;2.33;;;;;;;;;;6203165;28;20027;-81
2022/07/03 08:34:36;;;;;;;4.43;3.20;;;;;;;;;;6202125;28;20029;-81
2022/07/03 08:37:36;;;;;;;4.72;2.92;;;;;;;;;;6207933;28;20006;-81
2022/07/03 08:40:37;;;;;;;4.82;3.47;;;;;;;;;;6216595;28;20694;-81
2022/07/03 08:43:38;;;;;;;2.95;2.55;;;;;;;;;;6204168;28;20028;-81
2022/07/03 08:46:39;;;;;;;6.70;3.05;;;;;;;;;;6196204;28;20034;-82
2022/07/03 08:49:41;;;;;;;8.90;3.47;;;;;;;;;;6197626;28;20458;-81
2022/07/03 08:52:42;;;;;;;3.97;3.00;;;;;;;;;;6199932;28;20036;-81
2022/07/03 08:55:42;;;;;;;4.00;3.05;;;;;;;;;;6207324;28;20031;-81
2022/07/03 08:58:43;;;;;;;6.10;3.43;;;;;;;;;;6195611;28;20101;-81
2022/07/03 09:01:45;;;;;;;3.40;2.80;;;;;;;;;;6201295;28;20262;-81
2022/07/03 09:04:46;;;;;;;3.55;2.80;;;;;;;;;;6203989;28;20018;-81
2022/07/03 09:07:47;;;;;;;4.32;3.17;;;;;;;;;;6201223;28;20802;-82
2022/07/03 09:10:47;;;;;;;5.30;3.88;;;;;;;;;;6197076;28;20034;-81
2022/07/03 09:13:47;;;;;;;5.87;3.40;;;;;;;;;;6203749;28;20015;-81
2022/07/03 09:16:48;;;;;;;4.83;3.47;;;;;;;;;;6184234;28;20287;-81
2022/07/03 09:19:49;;;;;;;4.95;3.35;;;;;;;;;;6185442;28;20022;-82
2022/07/03 09:22:49;;;;;;;4.32;3.88;;;;;;;;;;6185033;28;20037;-82
2022/07/03 09:25:50;;;;;;;5.10;3.73;;;;;;;;;;6195455;28;20017;-82
2022/07/03 09:28:55;;;;;;;5.68;3.80;;;;;;;;;;6192977;28;20022;-81
2022/07/03 09:31:55;;;;;;;4.80;3.35;;;;;;;;;;6196338;28;20498;-81
2022/07/03 09:35:15;;;;;;;7.97;3.97;;;;;;;;;;6200423;28;20018;-81
2022/07/03 09:38:15;;;;;;;5.47;3.67;;;;;;;;;;6210678;28;20014;-82
2022/07/03 09:41:15;;;;;;;9.20;3.77;;;;;;;;;;6200023;28;20168;-82
2022/07/03 09:44:35;;;;;;;5.90;4.07;;;;;;;;;;6200021;28;20033;-81
2022/07/03 09:47:35;;;;;;;3.92;3.53;;;;;;;;;;6203233;28;20026;-82
2022/07/03 09:50:36;;;;;;;5.17;4.00;;;;;;;;;;6198758;28;20025;-82
2022/07/03 09:53:43;;;;;;;6.30;3.73;;;;;;;;;;6198540;28;20026;-82
2022/07/03 09:56:43;;;;;;;3.53;3.20;;;;;;;;;;6204372;28;20274;-81
2022/07/03 09:59:43;;;;;;;7.53;4.03;;;;;;;;;;6190150;28;20022;-81
2022/07/03 10:02:43;;;;;;;;;;;;;;;;;;6188065;28;20014;-81
2022/07/03 10:05:45;;;;;;;8.70;3.90;;;;;;;;;;6205715;28;20411;-82
2022/07/03 10:08:46;;;;;;;4.47;3.38;;;;;;;;;;6204890;28;20038;-81
2022/07/03 10:11:46;;;;;;;;;;;;;;;;;;6198473;28;20113;-81
2022/07/03 10:14:46;;;;;;;9.73;4.43;;;;;;;;;;6199026;28;19912;-81
2022/07/03 10:17:48;;;;;;;4.50;3.83;;;;;;;;;;6213377;28;20074;-82
2022/07/03 10:20:49;;;;;;;5.10;4.22;;;;;;;;;;6196878;28;20037;-83
2022/07/03 10:23:49;;;;;;;4.47;3.42;;;;;;;;;;6218295;28;20027;-83
2022/07/03 10:26:51;;;;;;;8.13;3.63;;;;;;;;;;6208933;28;20071;-83
2022/07/03 10:29:52;;;;;;;5.28;3.88;;;;;;;;;;6195806;28;20026;-83
2022/07/03 10:32:52;;;;;;;;;;;;;;;;;;6197716;28;20018;-83
2022/07/03 10:35:53;;;;;;;4.13;3.60;;;;;;;;;;6195731;28;20396;-83
2022/07/03 10:38:53;;;;;;;;;;;;;;;;;;6215486;28;20029;-83
2022/07/03 10:45:13;;;;;;;5.18;4.13;;;;;;;;;;6203773;28;20034;-83
2022/07/03 10:48:13;;;;;;;;;;;;;;;;;;6210427;28;20045;-83
2022/07/03 10:51:14;;;;;;;5.55;3.85;;;;;;;;;;6206378;28;19913;-83
2022/07/03 10:54:17;;;;;;;;;;;;;;;;;;6207133;28;20026;-83
2022/07/03 10:57:18;;;;;;;5.20;3.88;;;;;;;;;;6212194;28;19909;-83
2022/07/03 11:00:18;;;;;;;;;;;;;;;;;;6214067;28;21103;-83
2022/07/03 11:03:38;;;;;;;4.33;3.27;;;;;;;;;;6220443;28;19917;-83
2022/07/03 11:06:44;;;;;;;5.68;3.75;;;;;;;;;;6203600;28;20108;-83
2022/07/03 11:09:45;;;;;;;6.15;3.67;;;;;;;;;;6201520;28;20050;-83
2022/07/03 11:12:45;;;;;;;;;;;;;;;;;;6214475;28;20485;-83
2022/07/03 11:15:45;;;;;;;5.63;3.90;;;;;;;;;;6197651;28;19977;-83
2022/07/03 11:18:45;;;;;;;;;;;;;;;;;;6192585;28;20030;-83
2022/07/03 11:21:49;;;;;;;4.93;3.97;;;;;;;;;;6208281;28;19906;-83
2022/07/03 11:24:52;;;;;;;6.35;3.63;;;;;;;;;;6204024;28;20025;-83
2022/07/03 11:27:52;;;;;;;6.82;4.28;;;;;;;;;;6205031;28;20026;-83
2022/07/03 11:30:52;;;;;;;;;;;;;;;;;;6208626;28;20036;-82
2022/07/03 11:33:55;;;;;;;4.75;3.83;;;;;;;;;;6196707;28;19921;-80
2022/07/03 11:36:56;;;;;;;6.00;3.90;;;;;;;;;;6191967;28;20076;-81
2022/07/03 11:39:56;;;;;;;;;;;;;;;;;;6187036;28;20586;-82
2022/07/03 11:42:56;;;;;;;6.45;4.18;;;;;;;;;;6189369;28;19988;-83
2022/07/03 11:45:56;;;;;;;;;;;;;;;;;;6197402;28;20446;-83
2022/07/03 11:49:08;;;;;;;5.30;4.50;;;;;;;;;;6188768;28;19909;-83
2022/07/03 11:52:08;;;;;;;6.50;4.30;;;;;;;;;;6188291;28;20040;-83
2022/07/03 11:55:09;;;;;;;;;;;;;;;;;;6194176;28;20105;-82
2022/07/03 11:58:09;;;;;;;6.25;4.00;;;;;;;;;;6207251;28;20413;-82
2022/07/03 12:01:09;;;;;;;;;;;;;;;;;;6199700;28;20102;-82
2022/07/03 12:04:09;;;;;;;7.22;3.95;;;;;;;;;;6211088;28;19916;-83
2022/07/03 12:07:09;;;;;;;;;;;;;;;;;;6199669;28;20025;-84
2022/07/03 12:10:10;;;;;;;5.05;4.10;;;;;;;;;;6219313;23;19926;-85
2022/07/03 12:13:10;;;;;;;;;;;;;;;;;;6204419;28;20029;-82
2022/07/03 12:16:12;;;;;;;5.40;3.83;;;;;;;;;;6193013;28;19906;-82
2022/07/03 12:19:13;;;;;;;6.05;4.35;;;;;;;;;;6182759;28;20104;-83
2022/07/03 12:22:13;;;;;;;;;;;;;;;;;;6191265;28;20548;-83
2022/07/03 12:25:14;;;;;;;7.35;4.22;;;;;;;;;;6184530;28;20203;-83
2022/07/03 12:28:14;;;;;;;;;;;;;;;;;;6186096;28;20113;-83
2022/07/03 12:31:14;;;;;;;8.85;4.43;;;;;;;;;;6189873;28;19920;-83
2022/07/03 12:34:14;;;;;;;;;;;;;;;;;;6192178;28;20077;-82
2022/07/03 12:37:15;;;;;;;5.93;4.00;;;;;;;;;;6202397;28;20365;-82
2022/07/03 12:40:15;;;;;;;7.67;4.17;;;;;;;;;;6196434;28;20462;-82
2022/07/03 12:43:15;;;;;;;5.50;3.80;;;;;;;;;;6194105;28;20129;-83
2022/07/03 12:46:33;;;;;;;6.20;4.30;;;;;;;;;;6185507;28;20026;-82
2022/07/03 12:49:33;;;;;;;6.28;4.47;;;;;;;;;;6199139;28;20030;-82
2022/07/03 12:52:34;;;;;;;12.73;4.70;;;;;;;;;;6190126;28;20117;-83
2022/07/03 12:55:34;;;;;;;6.63;3.97;;;;;;;;;;6188570;28;20030;-83
2022/07/03 13:02:02;;;;;;;5.47;4.38;;;;;;;;;;6191170;28;20041;-83
2022/07/03 13:05:23;;;;;;;5.15;4.15;;;;;;;;;;6190396;28;20389;-83
2022/07/03 13:08:23;;;;;;;;;;;;;;;;;;6188756;28;20038;-83
2022/07/03 13:11:30;;;;;;;6.32;3.88;;;;;;;;;;6189102;28;19945;-83
2022/07/03 13:14:31;;;;;;;6.10;4.10;;;;;;;;;;6192337;28;20030;-84
2022/07/03 13:18:03;;;;;;;5.23;3.87;;;;;;;;;;6190987;28;20022;-84
2022/07/03 13:21:04;;;;;;;4.68;4.20;;;;;;;;;;6149542;28;20088;-84
2022/07/03 13:24:05;;;;;;;8.75;4.97;;;;;;;;;;6193023;28;20022;-84
2022/07/03 13:27:05;;;;;;;4.68;3.67;;;;;;;;;;6192035;28;20288;-84
2022/07/03 13:30:05;;;;;;;7.67;4.23;;;;;;;;;;6192337;28;20205;-84
2022/07/03 13:33:06;;;;;;;6.68;4.28;;;;;;;;;;6190727;28;20023;-84
2022/07/03 13:36:06;;;;;;;7.78;3.67;;;;;;;;;;6192170;28;20023;-83
2022/07/03 13:39:09;;;;;;;6.00;3.97;;;;;;;;;;6191994;28;20113;-84
2022/07/03 13:42:10;;;;;;;5.47;3.97;;;;;;;;;;6191389;28;20129;-83
2022/07/03 13:45:10;;;;;;;6.65;3.78;;;;;;;;;;6190876;28;20026;-83
2022/07/03 13:48:11;;;;;;;7.23;3.93;;;;;;;;;;6184777;28;20027;-84
2022/07/03 13:51:11;;;;;;;5.20;4.03;;;;;;;;;;6185426;28;20290;-84
2022/07/03 13:54:11;;;;;;;6.33;3.80;;;;;;;;;;6183505;28;20030;-83
2022/07/03 13:57:12;;;;;;;5.80;4.03;;;;;;;;;;6189301;28;20030;-83
2022/07/03 14:00:12;;;;;;;5.95;4.82;;;;;;;;;;6188974;28;20066;-83
2022/07/03 14:03:13;;;;;;;5.18;4.07;;;;;;;;;;6181412;28;20033;-83
2022/07/03 14:06:13;;;;;;;6.45;3.90;;;;;;;;;;6182824;28;20108;-83
2022/07/03 14:09:13;;;;;;;8.03;4.60;;;;;;;;;;6185543;28;20062;-82
2022/07/03 14:12:13;;;;;;;7.43;3.85;;;;;;;;;;6187919;28;20022;-82
2022/07/03 14:15:14;;;;;;;5.00;3.70;;;;;;;;;;6187913;28;20147;-82
2022/07/03 14:18:14;;;;;;;4.32;3.90;;;;;;;;;;6184607;28;20068;-82
2022/07/03 14:21:15;;;;;;;4.63;4.03;;;;;;;;;;6193417;28;20065;-82
2022/07/03 14:24:15;;;;;;;4.10;3.70;;;;;;;;;;6186917;28;20113;-82
2022/07/03 14:33:53;;;;;;;6.90;3.90;;;;;;;;;;6187212;28;20015;-82
2022/07/03 14:36:53;;;;;;;6.28;3.70;;;;;;;;;;6194212;28;20112;-82
2022/07/03 14:39:54;;;;;;;5.37;4.00;;;;;;;;;;6190539;28;20026;-82
2022/07/03 14:42:56;;;;;;;6.32;4.05;;;;;;;;;;6183619;28;20755;-82
2022/07/03 14:45:56;;;;;;;5.63;3.95;;;;;;;;;;6199708;28;20044;-82
2022/07/03 14:48:57;;;;;;;4.97;4.37;;;;;;;;;;6191760;28;20459;-82
2022/07/03 14:52:00;;;;;;;4.70;4.20;;;;;;;;;;6192654;28;20030;-82
2022/07/03 14:55:00;;;;;;;6.10;4.80;;;;;;;;;;6192628;28;20022;-82
2022/07/03 14:58:17;;;;;;;5.23;4.17;;;;;;;;;;6201307;28;20522;-82
2022/07/03 15:01:20;;;;;;;6.30;4.15;;;;;;;;;;6191185;28;20018;-83
2022/07/03 15:04:27;;;;;;;7.38;4.60;;;;;;;;;;6192493;28;20030;-82
2022/07/03 15:07:29;;;;;;;6.72;4.53;;;;;;;;;;6184983;28;20369;-83
2022/07/03 15:10:36;;;;;;;4.65;3.92;;;;;;;;;;6193379;28;20061;-83
2022/07/03 15:13:37;;;;;;;4.63;4.15;;;;;;;;;;6190983;28;20029;-83
2022/07/03 15:16:38;;;;;;;5.18;4.30;;;;;;;;;;6186659;28;20078;-83
2022/07/03 15:19:40;;;;;;;7.22;4.13;;;;;;;;;;6185985;28;20030;-83
2022/07/03 15:22:42;;;;;;;5.50;4.43;;;;;;;;;;6187775;28;20749;-83
2022/07/03 15:25:43;;;;;;;5.38;3.75;;;;;;;;;;6188754;28;20021;-82
2022/07/03 15:28:43;;;;;;;5.82;4.32;;;;;;;;;;6187104;28;20093;-82
2022/07/03 15:31:43;;;;;;;5.83;4.23;;;;;;;;;;6189108;28;20049;-82
2022/07/03 15:34:43;;;;;;;5.47;4.72;;;;;;;;;;6177778;28;20061;-82
2022/07/03 15:38:07;;;;;;;8.83;4.27;;;;;;;;;;6184259;28;20431;-82
2022/07/03 15:41:08;;;;;;;7.72;5.20;;;;;;;;;;6184008;28;20273;-82
2022/07/03 15:44:09;;;;;;;4.97;4.13;;;;;;;;;;6185333;28;20033;-82
2022/07/03 15:47:26;;;;;;;6.77;4.27;;;;;;;;;;6187667;28;20023;-84
2022/07/03 15:50:35;;;;;;;6.55;4.65;;;;;;;;;;6202631;28;20045;-83
2022/07/03 15:53:39;;;;;;;8.25;4.85;;;;;;;;;;6185597;28;20109;-82
2022/07/03 15:56:42;;;;;;;5.65;4.18;;;;;;;;;;6190831;28;20059;-83
2022/07/03 15:59:45;;;;;;;7.35;4.72;;;;;;;;;;6192404;28;20084;-82
2022/07/03 16:03:08;;;;;;;6.55;4.55;;;;;;;;;;6191693;28;20026;-82
2022/07/03 16:06:08;;;;;;;6.95;4.22;;;;;;;;;;6189465;28;20050;-82
2022/07/03 16:09:08;;;;;;;6.53;4.27;;;;;;;;;;6185114;28;20758;-82
2022/07/03 16:12:16;;;;;;;7.10;5.55;;;;;;;;;;6183689;28;20282;-82
2022/07/03 16:15:17;;;;;;;7.45;4.90;;;;;;;;;;6188592;28;20592;-82
2022/07/03 16:18:17;;;;;;;7.83;5.63;;;;;;;;;;6178679;28;20085;-83
2022/07/03 16:21:21;;;;;;;7.85;5.10;;;;;;;;;;6185648;28;20038;-82
2022/07/03 16:24:22;;;;;;;9.02;5.72;;;;;;;;;;6190156;28;20018;-82
2022/07/03 16:27:24;;;;;;;8.52;6.00;;;;;;;;;;6188185;28;20049;-83
2022/07/03 16:30:24;;;;;;;7.93;5.00;;;;;;;;;;6196770;28;20763;-82
2022/07/03 16:33:24;;;;;;;;;;;;;;;;;;6190143;28;20032;-82
2022/07/03 16:36:26;;;;;;;7.30;5.45;;;;;;;;;;6190785;28;19906;-82
2022/07/03 16:39:34;;;;;;;13.80;6.00;;;;;;;;;;6188860;28;20504;-82
2022/07/03 16:42:35;;;;;;;8.93;6.53;;;;;;;;;;6189153;28;20018;-83
2022/07/03 16:45:35;;;;;;;10.43;6.60;;;;;;;;;;6192781;28;20021;-83
2022/07/03 16:48:35;;;;;;;;;;;;;;;;;;6192590;28;20393;-82
2022/07/03 16:51:38;;;;;;;9.20;6.22;;;;;;;;;;6188317;28;20261;-82
2022/07/03 16:54:40;;;;;;;9.77;6.25;;;;;;;;;;6194663;28;20355;-82
2022/07/03 16:57:51;;;;;;;8.95;5.35;;;;;;;;;;6188854;28;20545;-82
2022/07/03 17:00:51;;;;;;;12.88;6.93;;;;;;;;;;6157916;28;20081;-82
2022/07/03 17:03:52;;;;;;;10.30;6.00;;;;;;;;;;6187065;28;20535;-83
2022/07/03 17:06:53;;;;;;;8.85;6.15;;;;;;;;;;6188277;28;20478;-82
2022/07/03 17:09:56;;;;;;;9.60;5.60;;;;;;;;;;6189101;28;20076;-82
2022/07/03 17:12:57;;;;;;;8.75;6.18;;;;;;;;;;6188159;28;20418;-82
2022/07/03 17:16:00;;;;;;;9.80;5.70;;;;;;;;;;6196570;28;20425;-82
2022/07/03 17:19:01;;;;;;;10.18;6.00;;;;;;;;;;6183958;28;20109;-82
2022/07/03 17:22:02;;;;;;;10.45;5.55;;;;;;;;;;6185322;28;20091;-82
2022/07/03 17:25:02;;;;;;;8.87;5.83;;;;;;;;;;6182490;28;20030;-81
2022/07/03 17:28:03;;;;;;;12.02;6.53;;;;;;;;;;6179330;28;20352;-83
2022/07/03 17:31:04;;;;;;;9.63;5.73;;;;;;;;;;6187099;28;20026;-83
2022/07/03 17:34:08;;;;;;;14.45;6.05;;;;;;;;;;6187487;28;20118;-83
2022/07/03 17:37:09;;;;;;;10.43;5.88;;;;;;;;;;6173178;28;20027;-83
2022/07/03 17:40:12;;;;;;;7.50;5.28;;;;;;;;;;6171104;28;20082;-83
2022/07/03 17:43:13;;;;;;;7.95;5.85;;;;;;;;;;6178507;28;20160;-83
2022/07/03 17:46:14;;;;;;;9.57;6.60;;;;;;;;;;6182086;28;20018;-83
2022/07/03 17:49:14;;;;;;;8.93;5.75;;;;;;;;;;6177946;28;20137;-83
2022/07/03 17:52:17;;;;;;;8.75;5.53;;;;;;;;;;6178014;28;20023;-83
2022/07/03 17:55:19;;;;;;;8.95;5.72;;;;;;;;;;6178839;28;20110;-82
2022/07/03 17:58:20;;;;;;;9.65;6.05;;;;;;;;;;6178820;28;20494;-83
2022/07/03 18:01:20;;;;;;;10.40;6.97;;;;;;;;;;6177528;28;20302;-83
2022/07/03 18:04:20;;;;;;;10.87;5.93;;;;;;;;;;6181701;28;20080;-82
2022/07/03 18:07:23;;;;;;;9.07;5.88;;;;;;;;;;6178320;28;20033;-82
2022/07/03 18:10:37;;;;;;;11.05;7.00;;;;;;;;;;6186109;28;20046;-83
2022/07/03 18:13:56;;;;;;;12.70;6.85;;;;;;;;;;6178209;28;20487;-82
2022/07/03 18:16:58;;;;;;;14.27;6.80;;;;;;;;;;6183984;28;20027;-83
2022/07/03 18:20:00;;;;;;;13.55;7.28;;;;;;;;;;6188141;28;20077;-83
2022/07/03 18:23:01;;;;;;;16.83;7.35;;;;;;;;;;6185118;28;20088;-83
2022/07/03 18:26:02;;;;;;;15.60;7.43;;;;;;;;;;6183149;28;20504;-83
2022/07/03 18:29:04;;;;;;;12.23;6.57;;;;;;;;;;6184368;28;20031;-82
2022/07/03 18:32:05;;;;;;;10.68;5.93;;;;;;;;;;6183278;28;20034;-82
2022/07/03 18:35:06;;;;;;;9.93;5.73;;;;;;;;;;6184433;28;20613;-82